Pottsville, Texas
Current Conditions -  °F | °C
As of 1:55 AM on Wednesday 26 Nov 2014 (Local Time) from KMNZ Reporting Station
Clear Clear  
Wind Chill:   Ceiling: Unl
Heat Index:   Visibility: 10mi
Dew Point: -2°   Wind: 10mph
Humidity: 69%   Direction: 210°SSW
Pressure: 30.11"   Gusts: NA
Location:  31.67°N, 98.33°W
Report Text: KMNZ 260755Z AUTO 21009KT 10SM CLR 04/M01 A3011 RMK AO2 T00371015
Loading
Personal Weather Stations






























Interactive Weather Map New forecast layout! Learn more

10-Day Weather Forecast

Advertisements
Track Severe Weather on mobile